Terminal Aerodrome Forecast
Issued by NWS Green Bay, WI

Home | Current Version | Previous Version | Text Only | Print | Product List | Glossary Off
Versions: 1 2 3 4 5 6 7 8 9 10 11 12 13 14 15 16 17 18 19 20 21 22 23 24 25 26 27

847
FTUS43 KGRB 231723
TAFGRB
TAF
KGRB 231723Z 2318/2418 05016G22KT P6SM SCT025
      TEMPO 2318/2322 BKN025
     FM240000 07010KT P6SM BKN035
     FM240500 06007KT P6SM SCT035
     FM240700 07006KT P6SM SCT150
     FM241400 14009G15KT P6SM SCT150=

USA.gov is the U.S. government's official web portal to all federal, state and local government web resources and services.